Time;durP1;ratioP1;P1;durP2;ratioP2;P2;SDS_P1;SDS_P2;PMS_P1;PMS_P2;Temp;Humidity;BMP_temperature;BMP_pressure;BME280_temperature;BME280_humidity;BME280_pressure;Samples;Min_cycle;Max_cycle;Signal;HPM_P1;HPM_P2
2023/09/02 00:00:52;;;;;;;;;10.33;10.33;;;;;25.83;100.00;100932.53;2122008;27;46822;-55
2023/09/02 00:01:53;;;;;;;;;3.00;2.00;;;;;25.79;100.00;100933.75;2121806;27;46569;-54
2023/09/02 00:02:53;;;;;;;;;8.67;8.67;;;;;25.78;100.00;100926.59;2122059;27;46078;-52
2023/09/02 00:03:54;;;;;;;;;8.00;7.00;;;;;25.77;100.00;100933.03;2121972;27;46296;-52
2023/09/02 00:04:54;;;;;;;;;10.00;10.00;;;;;25.77;100.00;100919.44;2121931;27;45746;-55
2023/09/02 00:05:54;;;;;;;;;11.50;10.50;;;;;25.78;100.00;100924.75;2120695;27;46236;-54
2023/09/02 00:06:55;;;;;;;;;8.33;7.00;;;;;25.78;100.00;100923.88;2093919;28;46379;-55
2023/09/02 00:07:55;;;;;;;;;9.75;9.75;;;;;25.79;100.00;100925.59;2095133;28;45222;-56
2023/09/02 00:08:55;;;;;;;;;9.75;9.75;;;;;25.80;100.00;100924.63;2112716;27;46181;-51
2023/09/02 00:09:58;;;;;;;;;11.00;8.50;;;;;25.82;100.00;100919.94;2113417;27;46383;-54
2023/09/02 00:10:59;;;;;;;;;4.80;4.80;;;;;25.81;100.00;100927.22;2112147;27;46449;-54
2023/09/02 00:11:59;;;;;;;;;11.25;11.25;;;;;25.83;100.00;100923.53;2112881;27;46314;-55
2023/09/02 00:13:00;;;;;;;;;8.00;8.00;;;;;25.82;100.00;100925.38;2094916;28;46472;-55
2023/09/02 00:14:01;;;;;;;;;11.40;11.40;;;;;25.81;100.00;100920.94;2095490;27;46494;-54
2023/09/02 00:15:01;;;;;;;;;9.50;9.50;;;;;25.83;100.00;100931.69;2111960;27;46215;-55
2023/09/02 00:16:02;;;;;;;;;11.00;11.00;;;;;25.84;100.00;100928.81;2103658;28;46972;-54
2023/09/02 00:17:03;;;;;;;;;14.20;11.20;;;;;25.84;100.00;100930.69;2104241;27;47217;-55
2023/09/02 00:18:03;;;;;;;;;10.75;10.75;;;;;25.81;100.00;100934.53;2111752;27;46745;-55
2023/09/02 00:19:04;;;;;;;;;13.50;13.50;;;;;25.80;100.00;100928.22;2111657;27;46348;-55
2023/09/02 00:20:05;;;;;;;;;11.00;11.00;;;;;25.80;100.00;100933.66;2110181;27;46573;-55
2023/09/02 00:21:06;;;;;;;;;9.60;8.80;;;;;25.81;100.00;100937.25;2108152;27;45418;-55
2023/09/02 00:22:06;;;;;;;;;12.67;12.67;;;;;25.80;100.00;100935.53;2104351;27;46623;-53
2023/09/02 00:23:06;;;;;;;;;11.00;11.00;;;;;25.80;100.00;100933.66;2113545;27;46852;-53
2023/09/02 00:24:07;;;;;;;;;9.00;8.33;;;;;25.79;100.00;100934.66;2112568;27;45642;-55
2023/09/02 00:25:07;;;;;;;;;12.00;12.00;;;;;25.80;100.00;100939.09;2112763;27;46634;-56
2023/09/02 00:26:08;;;;;;;;;10.33;10.33;;;;;25.80;100.00;100933.66;2112281;27;46214;-55
2023/09/02 00:27:08;;;;;;;;;10.67;10.67;;;;;25.79;100.00;100928.31;2110887;27;46390;-55
2023/09/02 00:28:08;;;;;;;;;10.33;9.00;;;;;25.78;100.00;100929.31;2095037;28;46745;-55
2023/09/02 00:29:09;;;;;;;;;13.00;11.67;;;;;25.79;100.00;100933.75;2095081;28;46734;-55
2023/09/02 00:30:09;;;;;;;;;11.67;11.00;;;;;25.78;100.00;100927.47;2103836;28;46236;-57
2023/09/02 00:31:10;;;;;;;;;13.75;13.75;;;;;25.79;100.00;100933.75;2103872;28;46278;-57
2023/09/02 00:32:10;;;;;;;;;10.50;10.00;;;;;25.79;100.00;100931.03;2103389;28;46354;-57
2023/09/02 00:33:10;;;;;;;;;11.75;10.00;;;;;25.78;100.00;100932.03;2105055;27;46637;-54
2023/09/02 00:34:11;;;;;;;;;9.00;9.00;;;;;25.78;100.00;100932.03;2113745;27;45957;-51
2023/09/02 00:35:11;;;;;;;;;10.50;10.50;;;;;25.76;100.00;100932.16;2114069;27;46309;-52
2023/09/02 00:36:11;;;;;;;;;10.50;10.50;;;;;25.78;100.00;100935.63;2114272;27;46107;-53
2023/09/02 00:37:12;;;;;;;;;9.00;8.25;;;;;25.76;100.00;100937.59;2114373;27;46435;-56
2023/09/02 00:38:12;;;;;;;;;9.75;9.75;;;;;25.75;100.00;100941.31;2123297;27;46275;-55
2023/09/02 00:39:13;;;;;;;;;9.33;8.33;;;;;25.78;100.00;100937.47;2120238;27;46853;-55
2023/09/02 00:40:17;;;;;;;;;10.00;10.00;;;;;25.76;100.00;100936.72;2117555;27;45573;-55
2023/09/02 00:41:39;;;;;;;;;11.50;11.00;;;;;25.77;100.00;100939.31;2123492;27;46813;-55
2023/09/02 00:42:40;;;;;;;;;11.20;10.00;;;;;25.75;100.00;100935.88;2123064;27;46632;-56
2023/09/02 00:43:41;;;;;;;;;10.40;10.00;;;;;25.75;100.00;100940.44;2122986;27;46508;-56
2023/09/02 00:44:41;;;;;;;;;10.50;10.50;;;;;25.76;100.00;100936.72;2114507;27;45175;-55
2023/09/02 00:45:43;;;;;;;;;9.75;9.75;;;;;25.75;100.00;100938.59;2113838;27;46353;-56
2023/09/02 00:46:44;;;;;;;;;12.00;10.50;;;;;25.76;100.00;100939.44;2123206;27;46591;-54
2023/09/02 00:47:45;;;;;;;;;14.40;12.00;;;;;25.75;100.00;100945.88;2123224;27;46488;-56
2023/09/02 00:48:45;;;;;;;;;8.75;8.75;;;;;25.74;100.00;100938.72;2122988;27;46272;-54
2023/09/02 00:49:46;;;;;;;;;12.00;12.00;;;;;25.71;100.00;100933.53;2123626;27;46844;-54
2023/09/02 00:50:47;;;;;;;;;9.00;9.00;;;;;25.71;100.00;100936.25;2123462;27;46947;-55
2023/09/02 00:51:47;;;;;;;;;13.50;11.00;;;;;25.70;100.00;100937.25;2123540;27;46389;-55
2023/09/02 00:52:47;;;;;;;;;11.00;11.00;;;;;25.68;100.00;100937.34;2123091;27;46218;-52
2023/09/02 00:53:48;;;;;;;;;8.00;8.00;;;;;25.69;100.00;100932.81;2123002;27;46342;-55
2023/09/02 00:54:49;;;;;;;;;9.75;9.75;;;;;25.70;100.00;100935.41;2123364;27;46069;-55
2023/09/02 00:55:52;;;;;;;;;8.50;8.25;;;;;25.70;100.00;100931.81;2114486;27;46467;-55
2023/09/02 00:56:52;;;;;;;;;11.25;11.25;;;;;25.69;100.00;100938.25;2114430;27;46077;-54
2023/09/02 00:57:56;;;;;;;;;9.00;9.00;;;;;25.68;100.00;100934.63;2123659;27;45730;-56
2023/09/02 00:59:00;;;;;;;;;10.80;10.60;;;;;25.69;100.00;100930.09;2112493;27;45940;-53
2023/09/02 01:00:03;;;;;;;;;9.00;9.00;;;;;25.66;100.00;100936.59;2115177;27;46622;-56
2023/09/02 01:01:05;;;;;;;;;9.80;9.80;;;;;25.67;100.00;100923.88;2122940;27;46922;-57
2023/09/02 01:02:08;;;;;;;;;12.00;11.60;;;;;25.69;100.00;100935.53;2123218;27;46302;-55
2023/09/02 01:03:08;;;;;;;;;9.50;9.50;;;;;25.67;100.00;100938.34;2122959;27;46765;-56
2023/09/02 01:04:09;;;;;;;;;11.67;10.00;;;;;25.67;100.00;100932.91;2123258;27;46634;-54
2023/09/02 01:05:09;;;;;;;;;8.00;8.00;;;;;25.65;100.00;100934.84;2123614;27;46208;-55
2023/09/02 01:06:10;;;;;;;;;10.67;10.67;;;;;25.64;100.00;100933.13;2123120;27;45607;-53
2023/09/02 01:07:10;;;;;;;;;9.75;9.75;;;;;25.64;100.00;100935.84;2122669;27;46492;-55
2023/09/02 01:08:12;;;;;;;;;10.00;10.00;;;;;25.63;100.00;100938.69;2123065;27;46364;-55
2023/09/02 01:09:13;;;;;;;;;9.25;9.25;;;;;25.62;100.00;100942.41;2122838;27;46247;-56
2023/09/02 01:10:13;;;;;;;;;10.00;10.00;;;;;25.61;100.00;100937.97;2123173;27;46704;-57
2023/09/02 01:11:13;;;;;;;;;12.67;9.00;;;;;25.60;100.00;100936.22;2104926;28;46684;-55
2023/09/02 01:12:14;;;;;;;;;11.00;11.00;;;;;25.59;100.00;100927.22;2105142;28;46422;-54
2023/09/02 01:13:15;;;;;;;;;9.67;7.67;;;;;25.60;100.00;100930.78;2121966;27;46960;-55
2023/09/02 01:14:16;;;;;;;;;10.00;9.00;;;;;25.58;100.00;100927.34;2121121;27;46458;-55
2023/09/02 01:15:16;;;;;;;;;11.75;11.00;;;;;25.58;100.00;100927.34;2123372;27;46299;-55
2023/09/02 01:16:17;;;;;;;;;12.50;12.50;;;;;25.59;100.00;100926.34;2118278;27;46566;-55
2023/09/02 01:17:17;;;;;;;;;8.00;8.00;;;;;25.59;100.00;100929.06;2114576;27;46803;-54
2023/09/02 01:18:17;;;;;;;;;10.00;9.33;;;;;25.57;100.00;100929.19;2122914;27;46255;-55
2023/09/02 01:19:20;;;;;;;;;9.33;8.67;;;;;25.58;100.00;100932.78;2122928;27;46457;-53
2023/09/02 01:20:24;;;;;;;;;8.50;8.50;;;;;25.58;100.00;100935.50;2123443;27;46823;-54
2023/09/02 01:22:02;;;;;;;;;8.25;8.25;;;;;25.58;100.00;100930.06;2123105;27;46647;-55
2023/09/02 01:23:11;;;;;;;;;6.00;5.00;;;;;25.57;100.00;100940.06;2115406;27;46432;-54
2023/09/02 01:24:35;;;;;;;;;9.40;8.80;;;;;25.55;100.00;100931.19;2117010;27;46770;-53
2023/09/02 01:26:06;;;;;;;;;9.40;9.40;;;;;25.56;100.00;100929.31;2072883;28;45885;-52
2023/09/02 01:27:17;;;;;;;;;8.00;8.00;;;;;25.55;100.00;100933.91;2079818;28;46890;-53
2023/09/02 01:28:20;;;;;;;;;10.00;10.00;;;;;25.52;100.00;100924.13;2079542;28;46803;-56
2023/09/02 01:29:27;;;;;;;;;10.60;10.40;;;;;25.52;100.00;100926.84;2079584;28;46332;-55
2023/09/02 01:30:32;;;;;;;;;9.00;9.00;;;;;25.53;100.00;100927.69;2078564;28;46598;-55
2023/09/02 01:31:35;;;;;;;;;10.00;9.75;;;;;25.51;100.00;100933.25;2079918;28;46864;-55
2023/09/02 01:32:40;;;;;;;;;9.00;8.25;;;;;25.51;100.00;100935.13;2080010;28;46622;-54
2023/09/02 01:33:41;;;;;;;;;11.00;10.50;;;;;25.51;100.00;100930.53;2080574;28;45680;-54
2023/09/02 01:34:42;;;;;;;;;9.60;9.60;;;;;25.50;100.00;100939.69;2079769;28;47202;-53
2023/09/02 01:35:44;;;;;;;;;10.20;8.40;;;;;25.49;100.00;100942.53;2079312;28;46581;-54
2023/09/02 01:36:50;;;;;;;;;11.40;10.40;;;;;25.50;100.00;100944.25;2080282;28;46466;-55
2023/09/02 01:37:55;;;;;;;;;9.60;9.60;;;;;25.48;100.00;100944.38;2071448;28;46774;-56
2023/09/02 01:38:56;;;;;;;;;9.60;9.00;;;;;25.46;100.00;100943.66;2076514;28;46533;-55
2023/09/02 01:39:57;;;;;;;;;4.40;4.40;;;;;25.43;100.00;100943.03;2079984;28;46398;-54
2023/09/02 01:41:01;;;;;;;;;10.25;10.25;;;;;25.45;100.00;100946.50;2079603;28;46891;-53
2023/09/02 01:42:02;;;;;;;;;7.20;7.20;;;;;25.43;100.00;100943.91;2080158;28;46041;-56
2023/09/02 01:43:04;;;;;;;;;9.50;8.25;;;;;25.42;100.00;100942.19;2079830;28;46782;-54
2023/09/02 01:44:05;;;;;;;;;8.60;8.20;;;;;25.42;100.00;100942.19;2070618;28;46492;-56
2023/09/02 01:45:07;;;;;;;;;7.00;7.00;;;;;25.42;100.00;100941.31;2072925;28;46273;-55
2023/09/02 01:46:08;;;;;;;;;8.20;8.00;;;;;25.42;100.00;100939.47;2080163;28;46515;-56
2023/09/02 01:47:08;;;;;;;;;10.00;10.00;;;;;25.41;100.00;100932.28;2076347;28;46288;-56
2023/09/02 01:48:10;;;;;;;;;8.00;8.00;;;;;25.39;100.00;100930.66;2075359;28;48150;-54
2023/09/02 01:49:11;;;;;;;;;8.60;8.60;;;;;25.40;100.00;100935.97;2071708;28;46912;-54
2023/09/02 01:50:14;;;;;;;;;7.40;7.40;;;;;25.40;100.00;100935.97;2075620;28;46425;-53
2023/09/02 01:51:15;;;;;;;;;9.80;9.20;;;;;25.41;100.00;100923.25;2079648;28;46638;-54
2023/09/02 01:52:15;;;;;;;;;10.00;10.00;;;;;25.40;100.00;100932.38;2071435;28;46721;-55
2023/09/02 01:53:16;;;;;;;;;10.67;8.33;;;;;25.40;100.00;100930.53;2074624;28;45098;-52
2023/09/02 01:54:17;;;;;;;;;8.00;8.00;;;;;25.41;100.00;100936.84;2079787;28;46312;-52
2023/09/02 01:55:17;;;;;;;;;3.50;3.50;;;;;25.39;100.00;100934.25;2079872;28;46784;-53
2023/09/02 01:56:18;;;;;;;;;10.67;10.67;;;;;25.39;100.00;100934.25;2080341;28;45458;-53
2023/09/02 01:57:19;;;;;;;;;7.50;7.50;;;;;25.39;100.00;100933.38;2079434;28;45996;-54
2023/09/02 01:58:20;;;;;;;;;8.67;8.67;;;;;25.37;100.00;100929.94;2071545;28;45929;-54
2023/09/02 01:59:20;;;;;;;;;10.00;10.00;;;;;25.37;100.00;100925.34;2071688;28;46283;-51
2023/09/02 02:00:20;;;;;;;;;9.00;8.67;;;;;25.37;100.00;100928.06;2072169;28;46846;-54
2023/09/02 02:01:21;;;;;;;;;7.00;6.00;;;;;25.38;100.00;100935.22;2073695;28;46139;-55
2023/09/02 02:02:21;;;;;;;;;7.00;7.00;;;;;25.37;100.00;100929.94;2079750;28;46230;-54
2023/09/02 02:03:28;;;;;;;;;8.00;8.00;;;;;25.40;100.00;100930.53;2096112;27;45326;-54
2023/09/02 02:04:42;;;;;;;;;5.00;5.00;;;;;25.40;100.00;100924.25;2115957;27;46675;-52
2023/09/02 02:05:48;;;;;;;;;8.00;7.75;;;;;25.38;100.00;100918.06;2113922;27;46626;-55
2023/09/02 02:06:52;;;;;;;;;9.25;7.50;;;;;25.40;100.00;100919.66;2122031;27;46847;-54
2023/09/02 02:07:58;;;;;;;;;2.50;2.50;;;;;25.38;100.00;100923.50;2111045;27;45917;-54
2023/09/02 02:09:09;;;;;;;;;7.75;7.75;;;;;25.35;100.00;100927.34;2114315;27;47009;-51
2023/09/02 02:10:19;;;;;;;;;5.75;5.75;;;;;25.34;100.00;100920.19;2114801;27;46926;-56
2023/09/02 02:11:21;;;;;;;;;7.00;5.75;;;;;25.34;100.00;100925.63;2118086;27;46113;-54
2023/09/02 02:12:22;;;;;;;;;6.50;6.25;;;;;25.33;100.00;100920.31;2122805;27;46856;-54
2023/09/02 02:13:22;;;;;;;;;6.00;6.00;;;;;25.32;100.00;100914.00;2122396;27;46654;-54
2023/09/02 02:14:23;;;;;;;;;5.67;5.67;;;;;25.32;100.00;100916.72;2122771;27;46386;-53
2023/09/02 02:15:23;;;;;;;;;5.00;5.00;;;;;25.33;100.00;100912.16;2122470;27;46247;-51
2023/09/02 02:16:24;;;;;;;;;8.00;6.00;;;;;25.31;100.00;100912.28;2110973;27;46390;-54
2023/09/02 02:17:25;;;;;;;;;4.67;4.67;;;;;25.32;100.00;100905.84;2113483;27;46366;-53
2023/09/02 02:18:25;;;;;;;;;6.00;5.25;;;;;25.32;100.00;100905.84;2123235;27;46262;-53
2023/09/02 02:19:26;;;;;;;;;6.75;6.25;;;;;25.34;100.00;100903.00;2109264;27;45575;-53
2023/09/02 02:20:31;;;;;;;;;6.67;5.67;;;;;25.33;100.00;100898.56;2113179;27;45633;-54
2023/09/02 02:21:31;;;;;;;;;8.00;8.00;;;;;25.34;100.00;100903.88;2122554;27;46714;-56
2023/09/02 02:22:31;;;;;;;;;6.00;6.00;;;;;25.33;100.00;100894.00;2119561;27;45603;-53
2023/09/02 02:23:32;;;;;;;;;5.00;5.00;;;;;25.34;100.00;100894.88;2115498;27;46019;-54
2023/09/02 02:24:32;;;;;;;;;6.67;5.00;;;;;25.32;100.00;100899.56;2114811;27;47042;-54
2023/09/02 02:25:33;;;;;;;;;6.67;6.33;;;;;25.32;100.00;100900.44;2113622;27;46563;-53
2023/09/02 02:26:33;;;;;;;;;8.00;6.00;;;;;25.31;100.00;100897.84;2122366;27;45868;-54
2023/09/02 02:27:33;;;;;;;;;6.00;6.00;;;;;25.32;100.00;100900.44;2122938;27;46528;-53
2023/09/02 02:28:34;;;;;;;;;4.00;4.00;;;;;25.31;100.00;100898.69;2122847;27;46958;-53
2023/09/02 02:29:34;;;;;;;;;6.00;6.00;;;;;25.33;100.00;100902.16;2122999;27;46021;-54
2023/09/02 02:30:35;;;;;;;;;6.67;6.67;;;;;25.33;100.00;100901.28;2122365;27;46429;-50
2023/09/02 02:31:36;;;;;;;;;8.00;8.00;;;;;25.32;100.00;100899.56;2122941;27;46835;-54
2023/09/02 02:32:36;;;;;;;;;5.00;5.00;;;;;25.30;100.00;100899.69;2123249;27;45869;-51
2023/09/02 02:33:37;;;;;;;;;8.00;6.00;;;;;25.31;100.00;100909.56;2121309;27;46184;-54
2023/09/02 02:34:37;;;;;;;;;6.00;6.00;;;;;25.31;100.00;100908.69;2122806;27;46870;-55
2023/09/02 02:35:38;;;;;;;;;4.33;4.33;;;;;25.31;100.00;100911.41;2122392;27;46619;-51
2023/09/02 02:36:38;;;;;;;;;6.33;6.33;;;;;25.29;100.00;100906.13;2112161;27;46674;-52
2023/09/02 02:37:39;;;;;;;;;8.33;8.33;;;;;25.29;100.00;100907.97;2104960;27;47022;-55
2023/09/02 02:38:39;;;;;;;;;7.00;7.00;;;;;25.29;100.00;100913.41;2113310;27;46444;-56
2023/09/02 02:39:39;;;;;;;;;6.00;6.00;;;;;25.27;100.00;100916.22;2115933;27;46693;-55
2023/09/02 02:40:40;;;;;;;;;6.00;6.00;;;;;25.28;100.00;100917.94;2120957;27;46194;-52
2023/09/02 02:41:40;;;;;;;;;6.33;6.33;;;;;25.27;100.00;100916.22;2123052;27;45420;-55
2023/09/02 02:42:41;;;;;;;;;6.33;6.33;;;;;25.26;100.00;100911.78;2122610;27;46267;-55
2023/09/02 02:43:41;;;;;;;;;8.50;8.50;;;;;25.26;100.00;100914.47;2122443;27;47788;-53
2023/09/02 02:44:41;;;;;;;;;5.00;5.00;;;;;25.30;100.00;100917.84;2104333;28;46628;-54
2023/09/02 02:45:42;;;;;;;;;6.00;5.00;;;;;25.28;100.00;100917.06;2104213;28;46549;-55
2023/09/02 02:46:43;;;;;;;;;6.00;5.67;;;;;25.28;100.00;100917.94;2122343;27;46693;-55
2023/09/02 02:47:43;;;;;;;;;4.67;4.67;;;;;25.28;100.00;100908.94;2122947;27;45869;-55
2023/09/02 02:48:43;;;;;;;;;4.67;4.67;;;;;25.28;100.00;100909.78;2123046;27;45885;-55
2023/09/02 02:49:44;;;;;;;;;4.67;4.67;;;;;25.30;100.00;100909.69;2122545;27;46737;-55
2023/09/02 02:50:44;;;;;;;;;6.00;6.00;;;;;25.29;100.00;100908.81;2122917;27;45946;-55
2023/09/02 02:51:44;;;;;;;;;6.00;4.67;;;;;25.27;100.00;100907.19;2122343;27;45963;-54
2023/09/02 02:52:45;;;;;;;;;3.33;3.33;;;;;25.24;100.00;100906.47;2122329;27;47010;-55
2023/09/02 02:53:45;;;;;;;;;6.00;6.00;;;;;25.23;100.00;100912.03;2122895;27;45038;-54
2023/09/02 02:54:46;;;;;;;;;4.67;4.00;;;;;25.18;100.00;100909.69;2122855;27;46216;-56
2023/09/02 02:55:46;;;;;;;;;5.00;5.00;;;;;25.18;100.00;100915.13;2122280;27;45998;-55
2023/09/02 02:56:46;;;;;;;;;5.00;5.00;;;;;25.19;100.00;100914.13;2121467;27;46561;-55
2023/09/02 02:57:47;;;;;;;;;5.33;5.33;;;;;25.18;100.00;100923.25;2122722;27;46370;-55
2023/09/02 02:58:48;;;;;;;;;6.33;5.00;;;;;25.18;100.00;100920.56;2113552;27;45684;-54
2023/09/02 02:59:50;;;;;;;;;5.00;5.00;;;;;25.19;100.00;100926.84;2113252;27;45424;-55
2023/09/02 03:01:02;;;;;;;;;7.50;6.50;;;;;25.16;100.00;100929.81;2122246;27;46551;-56
2023/09/02 03:02:02;;;;;;;;;4.75;4.75;;;;;25.15;100.00;100926.19;2122491;27;46831;-54
2023/09/02 03:03:03;;;;;;;;;5.67;5.67;;;;;25.14;100.00;100921.75;2122135;27;45999;-54
2023/09/02 03:04:04;;;;;;;;;5.00;4.67;;;;;25.16;100.00;100917.09;2123320;27;45102;-54
2023/09/02 03:05:04;;;;;;;;;5.00;4.00;;;;;25.17;100.00;100924.25;2123071;27;46371;-55
2023/09/02 03:06:05;;;;;;;;;5.00;5.00;;;;;25.14;100.00;100918.19;2122254;27;47107;-53
2023/09/02 03:07:05;;;;;;;;;5.00;5.00;;;;;25.10;100.00;100919.41;2122741;27;46392;-55
2023/09/02 03:08:07;;;;;;;;;4.67;4.67;;;;;25.10;100.00;100924.84;2122649;27;45038;-55
2023/09/02 03:09:07;;;;;;;;;4.00;4.00;;;;;25.09;100.00;100923.13;2121156;27;46832;-51
2023/09/02 03:10:08;;;;;;;;;3.67;3.67;;;;;25.07;100.00;100925.97;2112748;27;46229;-52
2023/09/02 03:11:08;;;;;;;;;3.67;3.67;;;;;25.07;100.00;100925.09;2113211;27;46608;-51
2023/09/02 03:12:08;;;;;;;;;5.33;5.33;;;;;25.07;100.00;100922.38;2122248;27;46829;-53
2023/09/02 03:13:08;;;;;;;;;3.00;3.00;;;;;25.07;100.00;100925.97;2122439;27;46020;-54
2023/09/02 03:14:09;;;;;;;;;7.67;5.67;;;;;25.06;100.00;100923.38;2121991;27;46481;-55
2023/09/02 03:15:09;;;;;;;;;4.00;4.00;;;;;25.06;100.00;100926.94;2112472;27;45813;-54
2023/09/02 03:16:10;;;;;;;;;6.67;6.67;;;;;25.06;100.00;100926.09;2111223;27;46205;-53
2023/09/02 03:17:10;;;;;;;;;4.00;4.00;;;;;25.06;100.00;100926.09;2114000;27;46187;-54
2023/09/02 03:18:10;;;;;;;;;5.33;4.00;;;;;25.05;100.00;100927.94;2111574;27;46868;-54
2023/09/02 03:19:10;;;;;;;;;1.33;1.33;;;;;25.03;100.00;100931.72;2113545;27;46362;-53
2023/09/02 03:20:11;;;;;;;;;4.67;4.00;;;;;25.05;100.00;100933.38;2121893;27;46331;-54
2023/09/02 03:21:11;;;;;;;;;5.00;4.00;;;;;25.05;100.00;100933.38;2122233;27;46781;-54
2023/09/02 03:22:11;;;;;;;;;4.00;4.00;;;;;25.03;100.00;100934.44;2121789;27;46268;-53
2023/09/02 03:23:12;;;;;;;;;4.33;4.33;;;;;25.04;100.00;100938.94;2113720;27;46815;-53
2023/09/02 03:24:12;;;;;;;;;4.33;4.00;;;;;25.03;100.00;100934.44;2093143;28;46790;-56
2023/09/02 03:25:13;;;;;;;;;2.67;2.67;;;;;25.02;100.00;100933.59;2094170;28;45682;-55
2023/09/02 03:26:17;;;;;;;;;5.00;5.00;;;;;25.01;100.00;100936.44;2122085;27;46316;-56
2023/09/02 03:27:17;;;;;;;;;2.25;2.25;;;;;25.01;100.00;100941.84;2113176;27;46693;-55
2023/09/02 03:28:17;;;;;;;;;3.67;3.67;;;;;25.01;100.00;100940.00;2113270;27;46430;-56
2023/09/02 03:29:18;;;;;;;;;4.00;4.00;;;;;25.01;100.00;100942.72;2119588;27;46032;-55
2023/09/02 03:30:19;;;;;;;;;3.67;3.67;;;;;25.02;100.00;100935.44;2122258;27;46674;-51
2023/09/02 03:31:19;;;;;;;;;1.50;1.50;;;;;25.02;100.00;100938.16;2103716;28;46490;-55
2023/09/02 03:32:20;;;;;;;;;4.00;4.00;;;;;25.01;100.00;100939.13;2103799;28;45019;-54
2023/09/02 03:33:20;;;;;;;;;3.00;3.00;;;;;25.00;100.00;100940.09;2121799;27;46161;-53
2023/09/02 03:34:20;;;;;;;;;3.67;3.67;;;;;24.99;100.00;100947.38;2122855;27;46509;-52
2023/09/02 03:35:21;;;;;;;;;4.67;4.67;;;;;25.03;100.00;100948.03;2113189;27;46257;-53
2023/09/02 03:36:21;;;;;;;;;4.00;4.00;;;;;25.02;100.00;100944.44;2113687;27;46078;-54
2023/09/02 03:37:21;;;;;;;;;4.33;4.33;;;;;25.01;100.00;100950.00;2122141;27;45968;-52
2023/09/02 03:38:22;;;;;;;;;3.67;3.67;;;;;25.03;100.00;100945.31;2121582;27;46296;-53
2023/09/02 03:39:22;;;;;;;;;3.33;3.33;;;;;25.00;100.00;100946.38;2117454;27;46251;-55
2023/09/02 03:40:22;;;;;;;;;4.33;4.33;;;;;24.99;100.00;100955.53;2116117;27;46242;-53
2023/09/02 03:41:23;;;;;;;;;3.00;3.00;;;;;24.97;100.00;100943.91;2122310;27;46535;-49
2023/09/02 03:42:23;;;;;;;;;4.00;4.00;;;;;25.03;100.00;100953.47;2122227;27;46025;-52
2023/09/02 03:43:24;;;;;;;;;6.33;5.00;;;;;24.98;100.00;100951.09;2122000;27;46594;-52
2023/09/02 03:44:24;;;;;;;;;3.33;3.33;;;;;25.02;100.00;100955.31;2122248;27;46710;-52
2023/09/02 03:45:24;;;;;;;;;4.00;4.00;;;;;25.02;100.00;100954.44;2122186;27;46682;-54
2023/09/02 03:46:25;;;;;;;;;2.00;2.00;;;;;24.96;100.00;100955.78;2122152;27;46452;-53
2023/09/02 03:47:31;;;;;;;;;3.50;3.00;;;;;24.95;100.00;100951.31;2122172;27;46899;-53
2023/09/02 03:48:31;;;;;;;;;3.00;3.00;;;;;24.93;100.00;100964.16;2122140;27;45622;-51
2023/09/02 03:49:31;;;;;;;;;5.00;5.00;;;;;24.97;100.00;100959.34;2113224;27;46235;-53
2023/09/02 03:50:32;;;;;;;;;5.00;5.00;;;;;24.97;100.00;100965.66;2108721;27;45691;-54
2023/09/02 03:51:32;;;;;;;;;3.67;3.33;;;;;24.91;100.00;100969.72;2116186;27;46503;-50
2023/09/02 03:52:32;;;;;;;;;4.33;4.33;;;;;24.94;100.00;100971.31;2121821;27;46620;-53
2023/09/02 03:53:32;;;;;;;;;3.00;3.00;;;;;24.92;100.00;100962.44;2116809;27;46564;-55
2023/09/02 03:54:34;;;;;;;;;3.00;3.00;;;;;24.93;100.00;100967.75;2115544;27;46412;-52
2023/09/02 03:55:35;;;;;;;;;3.00;3.00;;;;;24.91;100.00;100956.16;2122424;27;46508;-50
2023/09/02 03:56:36;;;;;;;;;4.33;4.33;;;;;24.92;100.00;100962.44;2121950;27;46726;-52
2023/09/02 03:57:37;;;;;;;;;3.00;3.00;;;;;24.90;100.00;100958.94;2122386;27;46569;-54
2023/09/02 03:58:38;;;;;;;;;3.00;3.00;;;;;24.92;100.00;100968.72;2114374;27;46514;-53
2023/09/02 03:59:38;;;;;;;;;4.75;4.00;;;;;24.90;100.00;100965.28;2106950;27;46393;-54
2023/09/02 04:00:39;;;;;;;;;3.67;3.67;;;;;24.91;100.00;100961.56;2113096;27;46217;-53
2023/09/02 04:01:39;;;;;;;;;5.00;5.00;;;;;24.90;100.00;100961.66;2118690;27;46321;-54
2023/09/02 04:02:39;;;;;;;;;4.00;4.00;;;;;24.91;100.00;100960.72;2113551;27;45496;-55
2023/09/02 04:03:40;;;;;;;;;5.67;4.00;;;;;24.90;100.00;100956.22;2120675;27;45437;-54
2023/09/02 04:04:41;;;;;;;;;2.67;2.67;;;;;24.89;100.00;100960.81;2118996;27;45731;-55
2023/09/02 04:05:41;;;;;;;;;3.00;3.00;;;;;24.89;100.00;100958.09;2113857;27;45634;-54
2023/09/02 04:06:42;;;;;;;;;5.33;3.00;;;;;24.90;100.00;100948.09;2119931;27;46585;-54
2023/09/02 04:07:42;;;;;;;;;4.00;4.00;;;;;24.90;100.00;100940.84;2118695;27;46322;-52
2023/09/02 04:08:42;;;;;;;;;3.67;3.00;;;;;24.90;100.00;100940.84;2102095;28;47063;-53
2023/09/02 04:09:43;;;;;;;;;3.00;3.00;;;;;24.89;100.00;100936.38;2095616;28;46728;-51
2023/09/02 04:10:43;;;;;;;;;3.00;3.00;;;;;24.87;100.00;100934.75;2113199;27;46038;-50
2023/09/02 04:11:44;;;;;;;;;3.00;3.00;;;;;24.88;100.00;100933.78;2121948;27;46794;-48
2023/09/02 04:12:44;;;;;;;;;5.33;5.33;;;;;24.86;100.00;100933.03;2119032;27;46424;-52
2023/09/02 04:13:44;;;;;;;;;3.00;3.00;;;;;24.85;100.00;100932.16;2113449;27;46324;-53
2023/09/02 04:14:44;;;;;;;;;2.67;2.67;;;;;24.85;100.00;100940.31;2119925;27;46478;-53
2023/09/02 04:15:45;;;;;;;;;3.33;3.33;;;;;24.86;100.00;100935.75;2121468;27;46292;-55
2023/09/02 04:16:45;;;;;;;;;6.00;4.33;;;;;24.86;100.00;100938.47;2119915;27;45432;-55
2023/09/02 04:17:45;;;;;;;;;4.00;4.00;;;;;24.85;100.00;100939.44;2114317;27;45902;-54
2023/09/02 04:18:46;;;;;;;;;3.67;3.67;;;;;24.85;100.00;100939.44;2104712;28;46238;-55
2023/09/02 04:19:46;;;;;;;;;3.00;3.00;;;;;24.84;100.00;100948.59;2104215;28;45446;-53
2023/09/02 04:20:47;;;;;;;;;3.33;3.33;;;;;24.84;100.00;100948.59;2113383;27;46717;-55
2023/09/02 04:21:47;;;;;;;;;2.00;2.00;;;;;24.84;100.00;100943.16;2113648;27;45743;-52
2023/09/02 04:22:47;;;;;;;;;4.33;3.00;;;;;24.83;100.00;100945.00;2119252;27;46709;-54
2023/09/02 04:23:47;;;;;;;;;3.00;3.00;;;;;24.82;100.00;100934.28;2118498;27;46214;-53
2023/09/02 04:24:48;;;;;;;;;3.33;2.67;;;;;24.83;100.00;100936.00;2121853;27;47084;-52
2023/09/02 04:25:51;;;;;;;;;0.00;0.00;;;;;24.82;100.00;100932.41;2122263;27;46694;-53
2023/09/02 04:26:51;;;;;;;;;3.25;3.25;;;;;24.84;100.00;100938.59;2095331;28;46525;-52
2023/09/02 04:27:52;;;;;;;;;3.33;3.33;;;;;24.84;100.00;100938.59;2095043;28;46184;-53
2023/09/02 04:28:55;;;;;;;;;6.33;5.00;;;;;24.83;100.00;100945.00;2121489;27;46474;-52
2023/09/02 04:29:55;;;;;;;;;3.00;3.00;;;;;24.84;100.00;100945.88;2112687;27;46313;-54
2023/09/02 04:30:57;;;;;;;;;2.00;2.00;;;;;24.83;100.00;100945.00;2112754;27;46202;-54
2023/09/02 04:31:57;;;;;;;;;3.00;2.50;;;;;24.82;100.00;100945.13;2121802;27;46351;-52
2023/09/02 04:32:58;;;;;;;;;3.00;3.00;;;;;24.82;100.00;100940.56;2121627;27;46268;-52
2023/09/02 04:33:58;;;;;;;;;2.33;2.33;;;;;24.81;100.00;100946.97;2121482;27;46963;-51
2023/09/02 04:34:58;;;;;;;;;4.00;3.00;;;;;24.79;100.00;100948.94;2121781;27;46240;-51
2023/09/02 04:36:00;;;;;;;;;4.00;3.00;;;;;24.81;100.00;100949.69;2104723;28;45178;-52
2023/09/02 04:37:00;;;;;;;;;5.25;3.75;;;;;24.83;100.00;100958.56;2104530;27;46728;-56
2023/09/02 04:38:00;;;;;;;;;4.33;4.00;;;;;24.79;100.00;100953.50;2103056;28;46211;-54
2023/09/02 04:39:06;;;;;;;;;3.00;3.00;;;;;24.77;100.00;100952.75;2103739;28;46479;-54
2023/09/02 04:40:09;;;;;;;;;4.50;4.50;;;;;24.77;100.00;100955.47;2120931;27;46491;-55
2023/09/02 04:41:09;;;;;;;;;4.25;3.00;;;;;24.74;100.00;100951.13;2112654;27;46689;-54
2023/09/02 04:42:10;;;;;;;;;5.00;5.00;;;;;24.75;100.00;100958.28;2113964;27;46334;-52